Terminal Aerodrome Forecast
Issued by NWS

Home | Current Version | Previous Version | Text Only | Print | Product List | Glossary On
Versions: 1 2 3 4 5 6 7 8 9 10 11 12 13
971
FTUS45 KTFX 241728
TAFBZN
TAF
KBZN 241728Z 2418/2518 VRB06KT P6SM BKN050
     FM250600 19006KT P6SM BKN100
     FM251500 19006KT P6SM SCT100=

USA.gov is the U.S. government's official web portal to all federal, state and local government web resources and services.